Terminal Aerodrome Forecast
Issued by NWS

Home | Current Version | Previous Version | Text Only | Print | Product List | Glossary On
Versions: 1 2 3 4 5 6 7 8 9 10 11 12 13 14 15 16 17 18 19 20 21 22 23 24 25 26 27 28 29 30 31 32
000
FTAK31 PANC 042104 AAA
TAFADL
TAF AMD
PADL 042104Z 0421/0518 07012G20KT 5SM -RA BR SCT006 BKN015 OVC025
      TEMPO 0421/0424 2SM -RA BR BKN006
     FM050700 10012KT P6SM BKN035 OVC060
     FM051400 06010KT P6SM SCT035 BKN060=

USA.gov is the U.S. government's official web portal to all federal, state and local government web resources and services.